createdAt,value
2023-03-21T00:01:16.643Z,99.90
2023-03-21T00:03:46.982Z,99.90
2023-03-21T00:06:15.528Z,99.90
2023-03-21T00:08:44.819Z,99.90
2023-03-21T00:11:14.333Z,99.90
2023-03-21T00:13:43.619Z,99.90
2023-03-21T00:16:19.127Z,99.90
2023-03-21T00:18:59.031Z,99.90
2023-03-21T00:21:48.806Z,99.90
2023-03-21T00:24:23.034Z,99.90
2023-03-21T00:26:51.975Z,99.90
2023-03-21T00:29:20.263Z,99.90
2023-03-21T00:31:48.492Z,99.90
2023-03-21T00:34:22.759Z,99.90
2023-03-21T00:37:01.792Z,99.90
2023-03-21T00:39:30.083Z,99.90
2023-03-21T00:41:58.337Z,99.90
2023-03-21T00:44:26.663Z,99.90
2023-03-21T00:47:06.500Z,99.90
2023-03-21T00:49:38.644Z,99.90
2023-03-21T00:52:17.198Z,99.90
2023-03-21T00:54:51.243Z,99.90
2023-03-21T00:57:20.388Z,99.90
2023-03-21T00:59:50.504Z,99.90
2023-03-21T01:02:23.349Z,99.90
2023-03-21T01:04:53.363Z,99.90
2023-03-21T01:07:22.052Z,99.90
2023-03-21T01:09:51.004Z,99.90
2023-03-21T01:12:19.449Z,99.90
2023-03-21T01:14:47.877Z,99.90
2023-03-21T01:17:16.248Z,99.90
2023-03-21T01:19:51.482Z,99.90
2023-03-21T01:22:22.448Z,99.90
2023-03-21T01:24:55.547Z,99.90
2023-03-21T01:27:26.734Z,99.90
2023-03-21T01:29:55.090Z,99.90
2023-03-21T01:32:23.412Z,99.90
2023-03-21T01:34:51.803Z,99.90
2023-03-21T01:37:21.622Z,99.90
2023-03-21T01:39:49.996Z,99.90
2023-03-21T01:42:18.369Z,99.90
2023-03-21T01:44:58.059Z,99.90
2023-03-21T01:47:26.810Z,99.90
2023-03-21T01:49:59.000Z,99.90
2023-03-21T01:52:37.026Z,99.90
2023-03-21T01:55:12.170Z,99.90
2023-03-21T01:57:55.148Z,99.90
2023-03-21T02:00:29.672Z,99.90
2023-03-21T02:03:11.165Z,99.90
2023-03-21T02:05:50.616Z,99.90
2023-03-21T02:08:22.281Z,99.90
2023-03-21T02:10:53.114Z,99.90
2023-03-21T02:13:21.789Z,99.90
2023-03-21T02:16:00.356Z,99.90
2023-03-21T02:18:37.005Z,99.90
2023-03-21T02:21:46.741Z,99.90
2023-03-21T02:24:48.857Z,99.90
2023-03-21T02:27:22.062Z,99.90
2023-03-21T02:30:26.446Z,99.90
2023-03-21T02:33:20.498Z,99.90
2023-03-21T02:36:13.534Z,99.90
2023-03-21T02:38:54.351Z,99.90
2023-03-21T02:41:40.152Z,99.90
2023-03-21T02:44:16.251Z,99.90
2023-03-21T02:47:02.934Z,99.90
2023-03-21T02:49:42.058Z,99.90
2023-03-21T02:52:18.757Z,99.90
2023-03-21T02:54:52.113Z,99.90
2023-03-21T02:57:22.812Z,99.90
2023-03-21T02:59:56.854Z,99.90
2023-03-21T03:02:30.972Z,99.90
2023-03-21T03:05:00.798Z,99.90
2023-03-21T03:07:40.902Z,99.90
2023-03-21T03:10:32.912Z,99.90
2023-03-21T03:13:15.103Z,99.90
2023-03-21T03:15:50.720Z,99.90
2023-03-21T03:18:28.219Z,99.90
2023-03-21T03:21:06.275Z,99.90
2023-03-21T03:23:39.074Z,99.90
2023-03-21T03:26:14.073Z,99.90
2023-03-21T03:28:47.474Z,99.90
2023-03-21T03:31:22.090Z,99.90
2023-03-21T03:33:53.565Z,99.90
2023-03-21T03:36:32.227Z,99.90
2023-03-21T03:39:05.387Z,99.90
2023-03-21T03:42:04.260Z,99.90
2023-03-21T03:44:28.724Z,99.90
2023-03-21T03:47:02.486Z,99.90
2023-03-21T03:49:34.631Z,99.90
2023-03-21T03:52:09.949Z,99.90
2023-03-21T03:54:41.345Z,99.90
2023-03-21T03:57:12.571Z,99.90
2023-03-21T03:59:42.292Z,99.90
2023-03-21T04:02:10.959Z,99.90
2023-03-21T04:04:39.598Z,99.90
2023-03-21T04:07:07.924Z,99.90
2023-03-21T04:09:44.164Z,99.90
2023-03-21T04:12:14.960Z,99.90
2023-03-21T04:14:46.956Z,99.90
2023-03-21T04:17:15.795Z,99.90
2023-03-21T04:19:45.623Z,99.90
2023-03-21T04:22:14.392Z,99.90
2023-03-21T04:24:42.984Z,99.90
2023-03-21T04:27:11.561Z,99.90
2023-03-21T04:29:41.470Z,99.90
2023-03-21T04:32:16.493Z,99.90
2023-03-21T04:34:50.315Z,99.90
2023-03-21T04:37:19.367Z,99.90
2023-03-21T04:39:48.124Z,99.90
2023-03-21T04:42:18.613Z,99.90
2023-03-21T04:44:48.845Z,99.90
2023-03-21T04:47:20.496Z,99.90
2023-03-21T04:49:49.410Z,99.90
2023-03-21T04:52:18.079Z,99.90
2023-03-21T04:54:46.385Z,99.90
2023-03-21T04:57:14.862Z,99.90
2023-03-21T04:59:43.348Z,99.90
2023-03-21T05:02:13.431Z,99.90
2023-03-21T05:04:42.263Z,99.90
2023-03-21T05:07:10.621Z,99.90
2023-03-21T05:09:39.303Z,99.90
2023-03-21T05:12:07.891Z,99.90
2023-03-21T05:14:36.204Z,99.90
2023-03-21T05:17:05.664Z,99.90
2023-03-21T05:19:40.840Z,99.90
2023-03-21T05:22:12.193Z,99.90
2023-03-21T05:24:42.074Z,99.90
2023-03-21T05:27:10.608Z,99.90
2023-03-21T05:29:38.845Z,99.90
2023-03-21T05:32:07.417Z,99.90
2023-03-21T05:34:37.339Z,99.90
2023-03-21T05:37:05.528Z,99.90
2023-03-21T05:39:33.838Z,99.90
2023-03-21T05:42:02.191Z,99.90
2023-03-21T05:44:30.428Z,99.90
2023-03-21T05:46:58.770Z,99.90
2023-03-21T05:49:27.153Z,99.90
2023-03-21T05:51:56.998Z,99.90
2023-03-21T05:54:25.433Z,99.90
2023-03-21T05:56:53.725Z,99.90
2023-03-21T05:59:22.185Z,99.90
2023-03-21T06:01:50.460Z,99.90
2023-03-21T06:04:21.496Z,99.90
2023-03-21T06:06:51.021Z,99.90
2023-03-21T06:09:20.804Z,99.90
2023-03-21T06:11:50.835Z,99.90
2023-03-21T06:14:19.563Z,99.90
2023-03-21T06:16:47.953Z,99.90
2023-03-21T06:19:16.583Z,99.90
2023-03-21T06:21:44.810Z,99.90
2023-03-21T06:24:13.656Z,99.90
2023-03-21T06:26:43.719Z,99.90
2023-03-21T06:29:15.677Z,99.90
2023-03-21T06:31:44.051Z,99.90
2023-03-21T06:34:12.362Z,99.90
2023-03-21T06:36:41.124Z,99.90
2023-03-21T06:39:10.690Z,99.90
2023-03-21T06:41:39.311Z,99.90
2023-03-21T06:44:09.101Z,99.90
2023-03-21T06:46:37.404Z,99.90
2023-03-21T06:49:05.860Z,99.90
2023-03-21T06:51:34.039Z,99.90
2023-03-21T06:54:02.302Z,99.90
2023-03-21T06:56:30.855Z,99.90
2023-03-21T06:58:59.088Z,99.90
2023-03-21T07:01:30.751Z,99.90
2023-03-21T07:03:59.751Z,99.90
2023-03-21T07:06:28.742Z,99.90
2023-03-21T07:08:57.611Z,99.90
2023-03-21T07:11:27.107Z,99.90
2023-03-21T07:13:55.708Z,99.90
2023-03-21T07:16:25.076Z,99.90
2023-03-21T07:18:54.978Z,99.90
2023-03-21T07:21:23.424Z,99.90
2023-03-21T07:23:51.680Z,99.90
2023-03-21T07:26:19.975Z,99.90
2023-03-21T07:28:48.367Z,99.90
2023-03-21T07:31:19.790Z,99.90
2023-03-21T07:33:48.083Z,99.90
2023-03-21T07:36:17.959Z,99.90
2023-03-21T07:38:47.294Z,99.90
2023-03-21T07:43:44.764Z,99.90
2023-03-21T07:46:12.999Z,99.90
2023-03-21T07:48:41.416Z,99.90
2023-03-21T07:51:09.927Z,99.90
2023-03-21T07:53:42.020Z,99.90
2023-03-21T07:56:11.107Z,99.90
2023-03-21T07:58:39.341Z,99.90
2023-03-21T08:01:07.953Z,99.90
2023-03-21T08:03:36.260Z,99.90
2023-03-21T08:06:04.610Z,99.90
2023-03-21T08:08:33.731Z,99.90
2023-03-21T08:11:05.172Z,99.90
2023-03-21T08:13:33.569Z,99.90
2023-03-21T08:16:01.910Z,99.90
2023-03-21T08:18:30.557Z,99.90
2023-03-21T08:20:59.798Z,99.90
2023-03-21T08:23:28.140Z,99.90
2023-03-21T08:25:56.856Z,99.90
2023-03-21T08:28:26.576Z,99.90
2023-03-21T08:30:54.763Z,99.90
2023-03-21T08:33:23.288Z,99.90
2023-03-21T08:35:51.664Z,99.90
2023-03-21T08:38:19.978Z,99.90
2023-03-21T08:40:48.270Z,99.90
2023-03-21T08:43:18.160Z,99.90
2023-03-21T08:45:47.844Z,99.90
2023-03-21T08:48:16.305Z,99.90
2023-03-21T08:50:47.541Z,99.90
2023-03-21T08:53:15.970Z,99.90
2023-03-21T08:55:45.398Z,99.90
2023-03-21T08:58:13.849Z,99.90
2023-03-21T09:00:42.124Z,99.90
2023-03-21T09:03:11.883Z,99.90
2023-03-21T09:05:40.331Z,99.90
2023-03-21T09:08:08.751Z,99.90
2023-03-21T09:10:36.969Z,99.90
2023-03-21T09:13:05.228Z,99.90
2023-03-21T09:15:35.564Z,99.90
2023-03-21T09:18:13.556Z,99.90
2023-03-21T09:20:45.208Z,99.90
2023-03-21T09:23:14.648Z,99.90
2023-03-21T09:25:43.623Z,99.90
2023-03-21T09:28:16.640Z,99.90
2023-03-21T09:30:45.627Z,99.90
2023-03-21T09:33:21.374Z,99.90
2023-03-21T09:35:52.211Z,99.90
2023-03-21T09:38:20.958Z,99.90
2023-03-21T09:40:58.387Z,99.90
2023-03-21T09:43:36.306Z,99.90
2023-03-21T09:46:09.197Z,99.90
2023-03-21T09:48:54.339Z,99.90
2023-03-21T09:51:27.412Z,99.90
2023-03-21T09:53:57.457Z,99.90
2023-03-21T09:56:26.216Z,99.90
2023-03-21T09:58:59.571Z,99.90
2023-03-21T10:01:33.229Z,99.90
2023-03-21T10:04:02.892Z,99.90
2023-03-21T10:06:32.990Z,99.90
2023-03-21T10:09:07.557Z,99.90
2023-03-21T10:11:42.826Z,99.90
2023-03-21T10:14:15.285Z,99.90
2023-03-21T10:16:44.939Z,99.80
2023-03-21T10:19:14.524Z,99.50
2023-03-21T10:22:03.863Z,99.70
2023-03-21T10:24:35.478Z,99.90
2023-03-21T10:27:04.465Z,99.90
2023-03-21T10:29:43.486Z,99.90
2023-03-21T10:32:13.058Z,99.90
2023-03-21T10:34:43.638Z,99.90
2023-03-21T10:37:14.228Z,99.90
2023-03-21T10:39:44.304Z,99.90
2023-03-21T10:42:21.668Z,99.90
2023-03-21T10:44:50.638Z,99.90
2023-03-21T10:47:21.578Z,99.90
2023-03-21T10:50:06.971Z,99.90
2023-03-21T10:52:39.547Z,99.90
2023-03-21T10:55:18.837Z,99.70
2023-03-21T10:57:47.505Z,98.30
2023-03-21T11:00:21.546Z,97.90
2023-03-21T11:02:50.563Z,98.10
2023-03-21T11:05:21.067Z,98.20
2023-03-21T11:07:57.382Z,97.90
2023-03-21T11:10:29.847Z,97.90
2023-03-21T11:12:58.979Z,96.70
2023-03-21T11:15:29.359Z,96.70
2023-03-21T11:17:57.687Z,95.70
2023-03-21T11:20:25.823Z,95.80
2023-03-21T11:22:57.384Z,95.20
2023-03-21T11:25:28.962Z,94.30
2023-03-21T11:27:57.253Z,94.50
2023-03-21T11:30:30.006Z,94.80
2023-03-21T11:32:59.012Z,95.30
2023-03-21T11:35:30.436Z,95.10
2023-03-21T11:38:00.185Z,95.10
2023-03-21T11:40:29.388Z,95.10
2023-03-21T11:42:58.694Z,95.10
2023-03-21T11:45:28.218Z,95.20
2023-03-21T11:47:58.075Z,94.10
2023-03-21T11:50:32.800Z,93.10
2023-03-21T11:53:07.552Z,93.80
2023-03-21T11:55:46.494Z,93.80
2023-03-21T11:58:26.585Z,93.60
2023-03-21T12:00:58.235Z,94.10
2023-03-21T12:03:48.290Z,93.40
2023-03-21T12:06:21.062Z,92.20
2023-03-21T12:08:55.795Z,91.60
2023-03-21T12:11:28.879Z,90.80
2023-03-21T12:14:03.382Z,91.00
2023-03-21T12:16:55.458Z,91.30
2023-03-21T12:19:44.393Z,91.10
2023-03-21T12:22:15.924Z,91.50
2023-03-21T12:24:48.877Z,91.20
2023-03-21T12:27:20.616Z,91.40
2023-03-21T12:29:57.092Z,90.90
2023-03-21T12:32:32.517Z,89.50
2023-03-21T12:35:17.472Z,89.30
2023-03-21T12:37:53.505Z,88.70
2023-03-21T12:40:32.604Z,87.70
2023-03-21T12:43:07.091Z,86.20
2023-03-21T12:45:46.698Z,84.10
2023-03-21T12:48:22.420Z,84.30
2023-03-21T12:50:51.423Z,82.70
2023-03-21T12:53:28.905Z,80.50
2023-03-21T12:56:01.487Z,79.50
2023-03-21T12:58:31.921Z,76.90
2023-03-21T13:01:02.161Z,77.00
2023-03-21T13:03:39.887Z,76.50
2023-03-21T13:06:11.261Z,75.40
2023-03-21T13:08:44.211Z,76.90
2023-03-21T13:11:15.369Z,78.60
2023-03-21T13:13:46.481Z,80.10
2023-03-21T13:16:17.004Z,79.80
2023-03-21T13:18:56.527Z,80.20
2023-03-21T13:21:30.129Z,79.40
2023-03-21T13:24:02.313Z,81.20
2023-03-21T13:26:40.827Z,82.40
2023-03-21T13:29:15.845Z,83.30
2023-03-21T13:31:52.053Z,84.20
2023-03-21T13:34:22.628Z,85.40
2023-03-21T13:36:51.954Z,85.40
2023-03-21T13:39:22.180Z,85.20
2023-03-21T13:41:52.303Z,85.20
2023-03-21T13:44:24.483Z,85.40
2023-03-21T13:46:56.369Z,85.30
2023-03-21T13:49:29.735Z,85.60
2023-03-21T13:51:59.355Z,86.60
2023-03-21T13:54:45.050Z,86.40
2023-03-21T13:57:23.841Z,86.10
2023-03-21T14:00:13.867Z,86.60
2023-03-21T14:02:52.067Z,86.00
2023-03-21T14:05:22.571Z,86.30
2023-03-21T14:07:54.557Z,86.60
2023-03-21T14:10:25.509Z,86.80
2023-03-21T14:12:55.406Z,87.40
2023-03-21T14:15:25.094Z,87.30
2023-03-21T14:17:54.748Z,86.80
2023-03-21T14:20:24.574Z,87.40
2023-03-21T14:22:53.078Z,87.20
2023-03-21T14:25:21.796Z,86.80
2023-03-21T14:27:50.909Z,86.50
2023-03-21T14:30:24.115Z,87.20
2023-03-21T14:32:52.543Z,87.20
2023-03-21T14:35:22.325Z,87.20
2023-03-21T14:37:51.485Z,87.60
2023-03-21T14:40:21.627Z,87.70
2023-03-21T14:42:50.470Z,87.50
2023-03-21T14:45:20.838Z,88.00
2023-03-21T14:48:01.300Z,87.40
2023-03-21T14:50:36.801Z,88.30
2023-03-21T14:53:05.030Z,88.60
2023-03-21T14:55:33.124Z,89.00
2023-03-21T14:58:01.160Z,89.00
2023-03-21T15:00:30.648Z,89.30
2023-03-21T15:03:01.061Z,89.70
2023-03-21T15:05:31.919Z,89.90
2023-03-21T15:08:00.818Z,90.10
2023-03-21T15:10:31.215Z,90.30
2023-03-21T15:13:00.155Z,90.30
2023-03-21T15:15:29.414Z,90.30
2023-03-21T15:17:59.724Z,90.20
2023-03-21T15:20:33.344Z,90.30
2023-03-21T15:23:03.610Z,90.50
2023-03-21T15:25:33.477Z,90.50
2023-03-21T15:28:01.607Z,90.40
2023-03-21T15:30:30.394Z,90.50
2023-03-21T15:32:58.888Z,90.80
2023-03-21T15:35:28.492Z,90.70
2023-03-21T15:37:59.121Z,90.80
2023-03-21T15:40:31.420Z,91.00
2023-03-21T15:43:14.942Z,91.00
2023-03-21T15:45:48.132Z,91.20
2023-03-21T15:48:16.456Z,91.40
2023-03-21T15:50:48.126Z,91.40
2023-03-21T15:53:19.059Z,91.50
2023-03-21T15:55:50.125Z,91.40
2023-03-21T15:58:19.745Z,91.50
2023-03-21T16:00:52.175Z,91.60
2023-03-21T16:03:23.953Z,91.70
2023-03-21T16:06:05.480Z,91.80
2023-03-21T16:08:36.480Z,91.80
2023-03-21T16:11:08.490Z,91.90
2023-03-21T16:13:36.470Z,91.80
2023-03-21T16:16:04.533Z,91.90
2023-03-21T16:18:32.659Z,91.90
2023-03-21T16:21:01.153Z,91.90
2023-03-21T16:23:30.056Z,92.00
2023-03-21T16:25:59.852Z,92.00
2023-03-21T16:28:27.882Z,92.00
2023-03-21T16:30:55.892Z,92.10
2023-03-21T16:33:25.510Z,92.00
2023-03-21T16:35:54.268Z,92.00
2023-03-21T16:38:22.403Z,92.00
2023-03-21T16:40:51.245Z,91.90
2023-03-21T16:43:20.763Z,91.80
2023-03-21T16:45:49.033Z,91.60
2023-03-21T16:48:17.804Z,91.70
2023-03-21T16:50:47.545Z,91.80
2023-03-21T16:53:17.258Z,91.80
2023-03-21T16:55:45.241Z,91.90
2023-03-21T16:58:15.681Z,91.90
2023-03-21T17:00:45.452Z,92.00
2023-03-21T17:03:15.459Z,92.00
2023-03-21T17:05:43.490Z,92.10
2023-03-21T17:08:15.519Z,92.20
2023-03-21T17:10:43.856Z,92.20
2023-03-21T17:13:11.921Z,92.20
2023-03-21T17:15:41.614Z,92.30
2023-03-21T17:18:11.332Z,92.40
2023-03-21T17:20:41.727Z,92.50
2023-03-21T17:23:10.503Z,92.70
2023-03-21T17:25:38.562Z,92.80
2023-03-21T17:28:06.795Z,92.90
2023-03-21T17:30:35.635Z,93.00
2023-03-21T17:33:04.387Z,93.40
2023-03-21T17:35:33.924Z,93.20
2023-03-21T17:38:01.963Z,93.40
2023-03-21T17:40:31.212Z,93.40
2023-03-21T17:42:59.714Z,93.50
2023-03-21T17:45:27.893Z,93.50
2023-03-21T17:47:56.497Z,93.60
2023-03-21T17:50:26.120Z,93.60
2023-03-21T17:52:57.568Z,93.90
2023-03-21T17:55:26.313Z,94.00
2023-03-21T17:57:54.300Z,94.10
2023-03-21T18:00:24.074Z,94.30
2023-03-21T18:02:52.219Z,94.60
2023-03-21T18:05:21.426Z,94.70
2023-03-21T18:10:40.757Z,95.10
2023-03-21T18:13:09.336Z,94.90
2023-03-21T18:15:38.317Z,94.90
2023-03-21T18:18:06.786Z,94.90
2023-03-21T18:20:51.245Z,95.50
2023-03-21T18:23:20.187Z,95.40
2023-03-21T18:25:49.991Z,95.60
2023-03-21T18:28:21.089Z,95.50
2023-03-21T18:31:09.468Z,95.40
2023-03-21T18:33:40.510Z,95.40
2023-03-21T18:36:09.889Z,95.50
2023-03-21T18:38:38.655Z,96.10
2023-03-21T18:41:09.856Z,96.20
2023-03-21T18:44:02.685Z,96.00
2023-03-21T18:46:27.437Z,96.20
2023-03-21T18:48:55.822Z,96.30
2023-03-21T18:51:24.292Z,96.50
2023-03-21T18:53:52.818Z,96.60
2023-03-21T18:57:19.571Z,97.00
2023-03-21T18:59:14.121Z,97.00
2023-03-21T19:01:42.479Z,97.50
2023-03-21T19:04:23.149Z,97.60
2023-03-21T19:06:57.750Z,97.80
2023-03-21T19:09:31.356Z,98.20
2023-03-21T19:12:02.006Z,98.30
2023-03-21T19:14:31.623Z,98.70
2023-03-21T19:17:55.728Z,98.90
2023-03-21T19:19:48.395Z,99.20
2023-03-21T19:22:16.765Z,99.50
2023-03-21T19:24:47.105Z,99.90
2023-03-21T19:27:19.838Z,99.90
2023-03-21T19:30:02.976Z,99.90
2023-03-21T19:32:36.601Z,99.90
2023-03-21T19:35:05.135Z,99.90
2023-03-21T19:37:35.199Z,99.90
2023-03-21T19:40:06.418Z,99.90
2023-03-21T19:42:37.031Z,99.90
2023-03-21T19:45:06.310Z,99.90
2023-03-21T19:47:34.734Z,99.90
2023-03-21T19:52:51.383Z,99.90
2023-03-21T19:55:19.938Z,99.90
2023-03-21T19:57:49.681Z,99.90
2023-03-21T20:00:18.979Z,99.90
2023-03-21T20:02:47.818Z,99.90
2023-03-21T20:05:17.903Z,99.90
2023-03-21T20:07:46.244Z,99.90
2023-03-21T20:10:14.730Z,99.90
2023-03-21T20:12:43.138Z,99.90
2023-03-21T20:15:19.287Z,99.90
2023-03-21T20:17:49.353Z,99.90
2023-03-21T20:20:18.449Z,99.90
2023-03-21T20:23:07.863Z,99.90
2023-03-21T20:25:37.288Z,99.90
2023-03-21T20:28:15.927Z,99.90
2023-03-21T20:30:53.092Z,99.90
2023-03-21T20:33:21.814Z,99.90
2023-03-21T20:38:40.189Z,99.90
2023-03-21T20:41:08.624Z,99.90
2023-03-21T20:44:24.379Z,99.90
2023-03-21T20:46:26.710Z,99.90
2023-03-21T20:48:55.244Z,99.90
2023-03-21T20:54:12.786Z,99.90
2023-03-21T20:56:41.715Z,99.90
2023-03-21T20:59:23.243Z,99.90
2023-03-21T21:01:55.902Z,99.90
2023-03-21T21:04:41.286Z,99.90
2023-03-21T21:07:16.215Z,99.90
2023-03-21T21:09:44.765Z,99.90
2023-03-21T21:12:14.390Z,99.90
2023-03-21T21:14:43.881Z,99.90
2023-03-21T21:20:02.993Z,99.90
2023-03-21T21:22:31.831Z,99.90
2023-03-21T21:25:00.087Z,99.90
2023-03-21T21:27:28.630Z,99.90
2023-03-21T21:29:57.720Z,99.90
2023-03-21T21:32:27.475Z,99.90
2023-03-21T21:34:56.235Z,99.90
2023-03-21T21:37:25.241Z,99.90
2023-03-21T21:39:54.165Z,99.90
2023-03-21T21:42:22.488Z,99.90
2023-03-21T21:44:50.768Z,99.90
2023-03-21T21:47:19.006Z,99.90
2023-03-21T21:49:49.021Z,99.90
2023-03-21T21:52:22.041Z,99.90
2023-03-21T21:54:50.663Z,99.90
2023-03-21T21:57:19.954Z,99.90
2023-03-21T21:59:48.468Z,99.90
2023-03-21T22:02:16.927Z,99.90
2023-03-21T22:04:45.164Z,99.90
2023-03-21T22:07:15.362Z,99.90
2023-03-21T22:09:44.527Z,99.90
2023-03-21T22:12:12.982Z,99.90
2023-03-21T22:14:41.174Z,99.90
2023-03-21T22:17:09.783Z,99.90
2023-03-21T22:19:40.181Z,99.90
2023-03-21T22:22:08.788Z,99.90
2023-03-21T22:24:38.635Z,99.90
2023-03-21T22:27:06.760Z,99.90
2023-03-21T22:29:35.068Z,99.90
2023-03-21T22:32:03.391Z,99.90
2023-03-21T22:34:31.686Z,99.90
2023-03-21T22:36:59.996Z,99.90
2023-03-21T22:39:28.754Z,99.90
2023-03-21T22:42:01.083Z,99.90
2023-03-21T22:44:34.585Z,99.90
2023-03-21T22:47:03.427Z,99.90
2023-03-21T22:49:32.510Z,99.90
2023-03-21T22:52:01.524Z,99.90
2023-03-21T22:54:30.044Z,99.90
2023-03-21T22:57:00.146Z,99.90
2023-03-21T22:59:29.162Z,99.90
2023-03-21T23:01:58.105Z,99.90
2023-03-21T23:04:27.429Z,99.90
2023-03-21T23:06:55.789Z,99.90
2023-03-21T23:09:24.196Z,99.90
2023-03-21T23:11:52.541Z,99.90
2023-03-21T23:14:22.904Z,99.90
2023-03-21T23:16:53.635Z,99.90
2023-03-21T23:19:25.497Z,99.90
2023-03-21T23:21:53.794Z,99.90
2023-03-21T23:24:22.201Z,99.90
2023-03-21T23:26:50.519Z,99.90
2023-03-21T23:29:18.837Z,99.90
2023-03-21T23:31:48.632Z,99.90
2023-03-21T23:34:20.826Z,99.90
2023-03-21T23:36:49.644Z,99.90
2023-03-21T23:39:18.966Z,99.90
2023-03-21T23:41:47.288Z,99.90
2023-03-21T23:44:16.317Z,99.90
2023-03-21T23:46:44.525Z,99.90
2023-03-21T23:49:15.189Z,99.90
2023-03-21T23:51:43.607Z,99.90
2023-03-21T23:54:12.070Z,99.90
2023-03-21T23:56:40.737Z,99.90
2023-03-21T23:59:09.403Z,99.90
